Time;durP1;ratioP1;P1;durP2;ratioP2;P2;SDS_P1;SDS_P2;PMS_P1;PMS_P2;Temp;Humidity;BMP_temperature;BMP_pressure;BME280_temperature;BME280_humidity;BME280_pressure;Samples;Min_cycle;Max_cycle;Signal;HPM_P1;HPM_P2
2021/04/11 00:00:36;;;;;;;2.08;0.65;;;12.40;79.20;;;;;;5018195;28;20037;-87
2021/04/11 00:03:05;;;;;;;4.00;0.70;;;12.60;79.40;;;;;;4992521;28;20031;-87
2021/04/11 00:05:34;;;;;;;4.70;0.88;;;12.10;79.80;;;;;;4998890;28;20072;-87
2021/04/11 00:08:01;;;;;;;3.45;0.85;;;12.10;79.60;;;;;;5011591;28;20033;-87
2021/04/11 00:10:32;;;;;;;2.03;0.70;;;12.10;80.50;;;;;;5013829;28;20045;-87
2021/04/11 00:12:59;;;;;;;2.30;0.55;;;12.00;80.40;;;;;;5012375;28;20336;-85
2021/04/11 00:15:25;;;;;;;3.00;0.70;;;12.00;80.40;;;;;;5012466;28;20023;-87
2021/04/11 00:17:51;;;;;;;2.28;0.90;;;11.90;81.20;;;;;;5012677;28;20483;-86
2021/04/11 00:20:17;;;;;;;3.63;0.90;;;12.10;81.60;;;;;;5011290;28;20164;-86
2021/04/11 00:22:44;;;;;;;2.55;0.68;;;11.80;81.50;;;;;;5014771;28;20029;-86
2021/04/11 00:25:13;;;;;;;2.63;0.60;;;11.80;81.60;;;;;;5017574;28;20030;-86
2021/04/11 00:27:39;;;;;;;4.53;0.70;;;11.70;82.10;;;;;;5011555;28;20041;-87
2021/04/11 00:30:05;;;;;;;2.95;0.90;;;11.70;82.40;;;;;;5015453;28;20090;-86
2021/04/11 00:32:31;;;;;;;4.63;0.98;;;11.60;82.40;;;;;;5014745;28;20471;-86
2021/04/11 00:34:57;;;;;;;3.72;0.80;;;11.60;82.20;;;;;;5017117;28;20034;-86
2021/04/11 00:37:23;;;;;;;3.22;0.80;;;11.50;83.40;;;;;;5015577;28;20157;-86
2021/04/11 00:39:48;;;;;;;2.13;0.60;;;11.50;82.80;;;;;;5014212;28;20026;-86
2021/04/11 00:42:23;;;;;;;4.68;0.90;;;11.50;83.50;;;;;;5014737;28;20040;-86
2021/04/11 00:44:49;;;;;;;3.50;0.60;;;11.40;84.10;;;;;;5014551;28;20128;-86
2021/04/11 00:47:17;;;;;;;4.78;1.15;;;11.30;84.90;;;;;;5014720;28;20030;-86
2021/04/11 00:49:46;;;;;;;3.03;0.70;;;11.30;85.50;;;;;;5014133;28;20491;-87
2021/04/11 00:52:14;;;;;;;2.38;0.60;;;11.20;85.60;;;;;;5014413;28;20684;-87
2021/04/11 00:54:41;;;;;;;3.60;0.60;;;11.40;86.20;;;;;;5019785;28;20038;-86
2021/04/11 00:57:08;;;;;;;4.15;0.80;;;11.10;86.30;;;;;;5017918;28;20091;-87
2021/04/11 00:59:35;;;;;;;3.85;0.60;;;11.10;86.30;;;;;;5017220;28;20622;-87
2021/04/11 01:02:01;;;;;;;2.38;0.80;;;11.10;86.30;;;;;;5014099;28;20072;-86
2021/04/11 01:04:27;;;;;;;3.33;0.85;;;11.00;86.50;;;;;;5017084;28;20125;-86
2021/04/11 01:06:58;;;;;;;3.67;0.70;;;11.00;87.90;;;;;;5014948;28;20504;-87
2021/04/11 01:09:30;;;;;;;3.15;0.80;;;11.00;88.40;;;;;;5014185;28;20045;-87
2021/04/11 01:11:59;;;;;;;;;;;10.90;89.00;;;;;;5016028;28;20030;-86
2021/04/11 01:14:27;;;;;;;2.13;0.70;;;10.90;89.40;;;;;;5014323;28;19920;-86
2021/04/11 01:16:53;;;;;;;3.10;0.73;;;10.90;90.00;;;;;;5014023;28;20018;-86
2021/04/11 01:19:26;;;;;;;1.95;0.60;;;10.80;90.20;;;;;;5030207;28;20033;-86
2021/04/11 01:22:13;;;;;;;2.42;0.50;;;10.80;90.40;;;;;;5014619;28;20026;-86
2021/04/11 01:24:52;;;;;;;2.30;0.68;;;10.90;90.50;;;;;;5005168;28;20034;-87
2021/04/11 01:27:21;;;;;;;2.38;0.60;;;10.80;90.20;;;;;;5014236;28;20026;-86
2021/04/11 01:29:48;;;;;;;1.65;0.60;;;10.80;90.10;;;;;;4993363;28;20023;-85
2021/04/11 01:32:15;;;;;;;3.70;0.80;;;10.80;90.50;;;;;;4994651;28;20061;-87
2021/04/11 01:34:43;;;;;;;2.22;0.70;;;10.80;90.50;;;;;;5014748;28;20048;-86
2021/04/11 01:37:12;;;;;;;3.60;0.70;;;10.90;90.70;;;;;;5012432;28;20065;-86
2021/04/11 01:39:41;;;;;;;2.38;0.70;;;10.80;90.90;;;;;;5012635;28;20081;-86
2021/04/11 01:42:09;;;;;;;2.55;0.85;;;10.80;91.00;;;;;;5017510;28;20061;-86
2021/04/11 01:44:39;;;;;;;2.70;0.60;;;10.70;90.80;;;;;;5010632;28;20033;-86
2021/04/11 01:47:05;;;;;;;3.25;0.70;;;10.70;90.80;;;;;;5014812;28;20032;-86
2021/04/11 01:49:31;;;;;;;2.80;0.77;;;10.80;90.90;;;;;;5013008;28;20025;-86
2021/04/11 01:52:12;;;;;;;2.75;0.82;;;10.80;90.60;;;;;;5013921;28;20836;-86
2021/04/11 01:54:40;;;;;;;1.98;0.70;;;10.80;90.50;;;;;;5003713;28;20246;-86
2021/04/11 01:57:10;;;;;;;2.13;0.70;;;10.70;90.90;;;;;;5001760;28;20060;-86
2021/04/11 01:59:37;;;;;;;2.13;0.65;;;10.70;91.10;;;;;;5014358;28;20026;-86
2021/04/11 02:02:06;;;;;;;3.45;0.70;;;10.70;91.00;;;;;;5013669;28;20026;-87
2021/04/11 02:04:32;;;;;;;2.47;0.50;;;10.80;91.30;;;;;;5017574;23;20060;-85
2021/04/11 02:07:03;;;;;;;3.58;0.80;;;10.80;90.80;;;;;;4996185;28;20040;-85
2021/04/11 02:09:31;;;;;;;2.08;0.77;;;10.80;91.10;;;;;;4994108;28;20072;-86
2021/04/11 02:11:59;;;;;;;2.45;0.60;;;10.80;91.00;;;;;;4983594;28;20069;-85
2021/04/11 02:14:25;;;;;;;2.95;0.90;;;10.80;91.20;;;;;;4993715;28;20018;-86
2021/04/11 02:16:54;;;;;;;2.15;0.77;;;10.90;91.80;;;;;;4995159;28;20029;-86
2021/04/11 02:19:26;;;;;;;3.70;0.80;;;10.90;91.00;;;;;;4992693;28;20034;-86
2021/04/11 02:22:00;;;;;;;3.35;0.80;;;10.80;91.30;;;;;;4994389;28;20129;-85
2021/04/11 02:24:26;;;;;;;2.83;0.60;;;10.80;91.70;;;;;;4994588;28;20030;-85
2021/04/11 02:26:53;;;;;;;3.08;0.75;;;10.80;92.00;;;;;;4993496;28;20421;-86
2021/04/11 02:29:22;;;;;;;2.75;0.80;;;10.80;92.20;;;;;;4995474;28;20022;-86
2021/04/11 02:31:48;;;;;;;2.38;0.60;;;10.80;91.60;;;;;;4992806;28;20108;-86
2021/04/11 02:34:29;;;;;;;2.90;0.80;;;10.80;91.60;;;;;;5002471;28;20105;-86
2021/04/11 02:37:01;;;;;;;2.05;0.77;;;10.80;91.10;;;;;;4993714;28;20031;-85
2021/04/11 02:39:35;;;;;;;1.80;0.60;;;10.80;91.10;;;;;;4993991;28;20049;-86
2021/04/11 02:42:05;;;;;;;2.90;0.80;;;10.80;90.70;;;;;;4983548;28;20039;-86
2021/04/11 02:44:38;;;;;;;5.03;0.90;;;10.80;90.90;;;;;;4975657;28;20038;-85
2021/04/11 02:47:07;;;;;;;1.83;0.80;;;10.80;91.10;;;;;;4976368;28;20137;-85
2021/04/11 02:49:33;;;;;;;3.17;1.08;;;10.70;91.10;;;;;;4976644;28;20011;-85
2021/04/11 02:52:03;;;;;;;1.60;0.60;;;10.60;91.50;;;;;;4994206;28;20069;-86
2021/04/11 02:54:29;;;;;;;1.20;0.50;;;10.70;91.50;;;;;;4996636;28;20030;-85
2021/04/11 02:56:58;;;;;;;4.22;0.70;;;10.80;92.00;;;;;;5006299;28;20025;-86
2021/04/11 02:59:24;;;;;;;1.50;0.60;;;10.70;91.80;;;;;;5012064;28;20052;-86
2021/04/11 03:01:50;;;;;;;2.67;0.70;;;10.70;91.70;;;;;;5013797;28;20026;-85
2021/04/11 03:04:21;;;;;;;7.15;0.88;;;10.70;92.10;;;;;;5009476;28;20120;-85
2021/04/11 03:07:07;;;;;;;2.87;0.77;;;10.70;92.40;;;;;;4994270;28;20133;-86
2021/04/11 03:09:41;;;;;;;2.70;0.60;;;10.70;92.50;;;;;;4993898;28;20353;-86
2021/04/11 03:12:09;;;;;;;3.08;0.90;;;10.70;92.40;;;;;;4992373;28;20027;-86
2021/04/11 03:14:38;;;;;;;2.63;0.70;;;10.70;93.00;;;;;;4993120;28;20042;-85
2021/04/11 03:17:17;;;;;;;5.07;0.80;;;10.80;93.00;;;;;;4992213;28;20058;-86
2021/04/11 03:19:49;;;;;;;3.45;0.70;;;10.70;92.80;;;;;;4993972;28;20038;-86
2021/04/11 03:22:18;;;;;;;2.42;0.70;;;10.70;92.70;;;;;;4989765;28;20042;-86
2021/04/11 03:24:47;;;;;;;2.50;0.85;;;10.70;93.40;;;;;;4972338;28;20035;-86
2021/04/11 03:27:17;;;;;;;2.17;0.73;;;10.70;93.10;;;;;;4981129;28;20030;-86
2021/04/11 03:29:50;;;;;;;2.20;0.70;;;10.70;93.00;;;;;;4996393;28;20495;-86
2021/04/11 03:32:45;;;;;;;3.13;0.98;;;10.70;93.50;;;;;;4991815;28;20201;-85
2021/04/11 03:35:15;;;;;;;4.72;0.82;;;10.60;93.50;;;;;;4991501;28;20049;-85
2021/04/11 03:37:43;;;;;;;1.92;0.60;;;10.60;93.60;;;;;;4990876;28;20036;-85
2021/04/11 03:40:12;;;;;;;3.05;0.70;;;10.60;93.70;;;;;;4992815;28;20492;-86
2021/04/11 03:42:43;;;;;;;2.40;0.70;;;10.60;93.80;;;;;;4991665;28;20495;-85
2021/04/11 03:45:09;;;;;;;3.45;0.63;;;10.50;93.70;;;;;;4992102;28;20046;-85
2021/04/11 03:47:40;;;;;;;2.42;0.75;;;10.50;93.80;;;;;;4991943;28;20037;-85
2021/04/11 03:50:14;;;;;;;3.47;0.82;;;10.50;93.50;;;;;;4992860;28;20030;-85
2021/04/11 03:52:55;;;;;;;3.55;0.85;;;10.50;93.30;;;;;;4974363;28;20034;-85
2021/04/11 03:55:25;;;;;;;2.10;0.57;;;10.50;93.70;;;;;;4971476;28;20322;-85
2021/04/11 03:57:56;;;;;;;1.67;0.47;;;10.50;93.80;;;;;;4972065;28;20035;-85
2021/04/11 04:00:30;;;;;;;3.38;0.63;;;10.40;94.10;;;;;;4972143;28;20031;-86
2021/04/11 04:03:09;;;;;;;2.40;0.60;;;10.40;94.20;;;;;;4973203;28;20034;-85
2021/04/11 04:05:36;;;;;;;2.17;0.77;;;10.40;94.60;;;;;;4975931;28;20070;-85
2021/04/11 04:08:03;;;;;;;3.08;0.82;;;10.30;94.60;;;;;;4979606;28;20058;-86
2021/04/11 04:10:32;;;;;;;3.53;0.93;;;10.30;94.90;;;;;;4982472;28;20141;-85
2021/04/11 04:13:17;;;;;;;3.97;0.68;;;10.20;95.30;;;;;;4993581;28;20030;-85
2021/04/11 04:16:20;;;;;;;5.05;0.80;;;10.20;96.10;;;;;;4993985;28;20026;-86
2021/04/11 04:19:10;;;;;;;3.42;1.00;;;10.20;96.60;;;;;;4989053;28;20058;-85
2021/04/11 04:22:07;;;;;;;3.67;1.00;;;10.20;97.00;;;;;;4994265;28;20509;-86
2021/04/11 04:24:47;;;;;;;7.20;1.00;;;10.20;97.00;;;;;;4993863;28;20030;-85
2021/04/11 04:27:33;;;;;;;2.90;0.80;;;10.20;97.40;;;;;;4993049;28;20098;-85
2021/04/11 04:30:17;;;;;;;2.33;0.90;;;10.20;97.20;;;;;;4992223;28;20044;-85
2021/04/11 04:33:07;;;;;;;4.45;0.93;;;10.20;96.70;;;;;;4992206;28;20419;-86
2021/04/11 04:35:53;;;;;;;2.67;0.93;;;10.30;96.60;;;;;;4993115;28;20019;-86
2021/04/11 04:38:28;;;;;;;2.72;0.88;;;10.30;96.80;;;;;;4992900;28;20444;-86
2021/04/11 04:40:54;;;;;;;2.67;0.90;;;10.30;96.90;;;;;;4999348;28;20026;-85
2021/04/11 04:43:48;;;;;;;4.35;1.20;;;10.30;97.20;;;;;;4993329;28;20650;-86
2021/04/11 04:46:33;;;;;;;3.25;0.95;;;10.40;96.90;;;;;;4994705;28;20034;-86
2021/04/11 04:49:21;;;;;;;3.05;1.10;;;10.40;97.10;;;;;;4962633;28;20038;-85
2021/04/11 04:52:00;;;;;;;3.25;1.00;;;10.40;97.10;;;;;;4992546;28;20441;-85
2021/04/11 04:54:38;;;;;;;3.15;1.10;;;10.40;97.20;;;;;;4992476;28;20387;-86
2021/04/11 04:57:07;;;;;;;3.17;1.05;;;10.40;97.20;;;;;;4994465;28;20545;-86
2021/04/11 04:59:40;;;;;;;2.67;0.77;;;10.40;97.50;;;;;;4992616;28;20037;-86
2021/04/11 05:02:13;;;;;;;2.45;0.98;;;10.40;97.00;;;;;;4992894;28;20369;-87
2021/04/11 05:04:46;;;;;;;4.00;1.15;;;10.40;97.40;;;;;;4993863;28;20038;-86
2021/04/11 05:07:16;;;;;;;2.63;1.20;;;10.40;97.60;;;;;;4991920;28;20121;-86
2021/04/11 05:10:00;;;;;;;4.45;1.02;;;10.40;97.90;;;;;;4991259;28;20030;-85
2021/04/11 05:12:51;;;;;;;3.88;1.05;;;10.40;98.00;;;;;;4990935;28;20026;-86
2021/04/11 05:15:22;;;;;;;4.65;0.68;;;10.40;98.00;;;;;;4990337;28;20034;-86
2021/04/11 05:18:02;;;;;;;3.33;1.27;;;10.40;97.90;;;;;;4993107;28;20038;-86
2021/04/11 05:20:32;;;;;;;3.17;1.20;;;10.40;97.90;;;;;;4990998;28;20026;-86
2021/04/11 05:23:09;;;;;;;6.85;1.50;;;10.40;98.20;;;;;;4992243;28;20036;-86
2021/04/11 05:25:37;;;;;;;4.68;1.83;;;10.50;98.20;;;;;;4992075;28;20476;-87
2021/04/11 05:28:16;;;;;;;3.33;1.45;;;10.40;98.20;;;;;;4993017;28;20038;-86
2021/04/11 05:30:46;;;;;;;4.60;1.60;;;10.50;98.10;;;;;;4992394;28;20026;-85
2021/04/11 05:33:17;;;;;;;4.18;1.30;;;10.50;98.30;;;;;;4991557;28;20026;-85
2021/04/11 05:35:44;;;;;;;5.13;1.38;;;10.50;98.80;;;;;;4991907;28;20498;-86
2021/04/11 05:38:31;;;;;;;6.38;1.60;;;10.60;98.50;;;;;;4974765;28;20031;-86
2021/04/11 05:41:06;;;;;;;5.10;1.80;;;10.60;98.40;;;;;;4977101;28;20027;-85
2021/04/11 05:43:44;;;;;;;4.15;1.50;;;10.70;98.10;;;;;;4978879;28;20117;-85
2021/04/11 05:46:17;;;;;;;3.97;1.52;;;10.70;98.30;;;;;;4991808;28;20026;-85
2021/04/11 05:48:49;;;;;;;4.80;1.50;;;10.70;98.30;;;;;;4991038;28;20130;-86
2021/04/11 05:51:23;;;;;;;4.32;1.67;;;10.80;98.60;;;;;;4990706;28;20022;-86
2021/04/11 05:54:06;;;;;;;3.17;1.70;;;10.80;99.00;;;;;;4990931;28;20490;-86
2021/04/11 05:56:42;;;;;;;4.30;1.42;;;10.90;99.10;;;;;;4990418;28;20411;-86
2021/04/11 05:59:20;;;;;;;2.95;1.30;;;10.90;98.80;;;;;;4992640;28;20030;-86
2021/04/11 06:02:00;;;;;;;4.20;1.30;;;10.90;98.20;;;;;;4991056;28;20030;-87
2021/04/11 06:04:38;;;;;;;4.25;2.45;;;11.00;97.50;;;;;;4992561;28;20045;-86
2021/04/11 06:07:18;;;;;;;4.10;2.20;;;11.10;97.10;;;;;;4990356;28;20023;-86
2021/04/11 06:10:09;;;;;;;4.30;1.30;;;11.10;97.50;;;;;;4990544;28;20045;-86
2021/04/11 06:12:58;;;;;;;2.60;1.15;;;11.20;96.60;;;;;;4990723;28;20057;-86
2021/04/11 06:15:46;;;;;;;4.05;0.93;;;11.20;96.30;;;;;;4981469;28;20539;-87
2021/04/11 06:18:13;;;;;;;3.35;1.17;;;11.30;95.60;;;;;;4991502;28;20045;-86
2021/04/11 06:20:40;;;;;;;3.97;0.90;;;11.30;95.30;;;;;;4991522;28;20027;-86
2021/04/11 06:23:18;;;;;;;1.85;0.70;;;11.40;95.30;;;;;;4984847;28;20101;-85
2021/04/11 06:26:07;;;;;;;4.57;1.20;;;11.50;95.00;;;;;;4990741;28;20372;-86
2021/04/11 06:28:56;;;;;;;4.32;1.75;;;11.50;96.80;;;;;;4991039;28;20010;-86
2021/04/11 06:31:27;;;;;;;4.80;2.42;;;11.60;97.60;;;;;;4992686;28;20040;-86
2021/04/11 06:34:20;;;;;;;4.30;1.63;;;11.60;98.40;;;;;;4990743;28;20438;-86
2021/04/11 06:36:47;;;;;;;;;;;11.60;98.60;;;;;;4984056;28;20047;-86
2021/04/11 06:39:31;;;;;;;4.35;1.80;;;11.70;97.70;;;;;;4991094;28;20021;-86
2021/04/11 06:42:19;;;;;;;3.75;1.60;;;11.80;97.50;;;;;;4990604;28;20018;-86
2021/04/11 06:44:50;;;;;;;4.95;1.52;;;11.70;96.70;;;;;;4990719;28;20101;-87
2021/04/11 06:47:41;;;;;;;4.13;1.73;;;11.80;96.70;;;;;;4981887;28;20034;-86
2021/04/11 06:50:34;;;;;;;4.95;1.30;;;12.00;96.40;;;;;;4970522;28;20380;-86
2021/04/11 06:53:38;;;;;;;4.68;1.60;;;12.20;96.30;;;;;;4985835;28;20030;-86
2021/04/11 06:56:18;;;;;;;2.60;1.15;;;12.50;95.30;;;;;;4974085;28;20330;-86
2021/04/11 06:59:03;;;;;;;3.83;1.35;;;12.80;95.40;;;;;;4991287;28;20080;-86
2021/04/11 07:01:47;;;;;;;3.92;1.10;;;13.00;95.50;;;;;;4990701;28;20029;-86
2021/04/11 07:04:25;;;;;;;2.97;1.00;;;13.10;94.80;;;;;;4983762;28;20026;-86
2021/04/11 07:07:03;;;;;;;3.03;0.88;;;13.20;94.50;;;;;;4985393;28;20089;-86
2021/04/11 07:09:54;;;;;;;2.55;1.10;;;13.30;93.50;;;;;;4990634;28;20483;-86
2021/04/11 07:12:56;;;;;;;3.83;1.25;;;13.20;93.10;;;;;;4985850;28;20133;-88
2021/04/11 07:15:59;;;;;;;7.13;1.55;;;13.30;93.20;;;;;;4906820;29;20024;-85
2021/04/11 07:19:01;;;;;;;3.47;1.20;;;13.20;93.30;;;;;;4988309;28;20035;-86
2021/04/11 07:22:09;;;;;;;3.00;1.10;;;13.40;92.70;;;;;;4991968;28;20105;-85
2021/04/11 07:24:50;;;;;;;4.97;1.38;;;13.50;92.80;;;;;;4991274;28;20085;-86
2021/04/11 07:27:18;;;;;;;2.85;1.20;;;13.50;92.50;;;;;;4991339;28;20161;-86
2021/04/11 07:30:27;;;;;;;5.75;1.00;;;13.60;92.50;;;;;;5005295;28;20041;-86
2021/04/11 07:33:09;;;;;;;3.30;1.13;;;13.80;91.50;;;;;;4993467;28;20022;-86
2021/04/11 07:35:54;;;;;;;2.85;0.80;;;14.10;91.20;;;;;;4993911;28;20036;-86
2021/04/11 07:38:29;;;;;;;2.53;0.80;;;14.40;89.10;;;;;;4995349;28;20014;-88
2021/04/11 07:41:20;;;;;;;2.03;0.65;;;14.40;87.20;;;;;;4992911;28;20110;-86
2021/04/11 07:43:49;;;;;;;3.28;0.80;;;14.20;87.60;;;;;;4990198;28;20329;-86
2021/04/11 07:46:34;;;;;;;3.20;1.40;;;14.00;87.30;;;;;;4994395;28;20073;-86
2021/04/11 07:49:40;;;;;;;2.47;1.15;;;14.00;88.20;;;;;;4993706;28;20022;-86
2021/04/11 07:52:18;;;;;;;4.20;1.02;;;13.80;88.70;;;;;;4999152;28;20110;-87
2021/04/11 07:54:52;;;;;;;2.10;0.70;;;13.80;88.70;;;;;;4988439;28;20153;-87
2021/04/11 07:57:34;;;;;;;5.80;0.90;;;13.90;89.70;;;;;;4996738;28;20088;-86
2021/04/11 08:00:24;;;;;;;2.53;0.80;;;14.10;89.60;;;;;;4998965;28;20041;-86
2021/04/11 08:03:17;;;;;;;3.75;1.10;;;14.40;88.10;;;;;;4982754;28;20122;-87
2021/04/11 08:06:04;;;;;;;4.28;0.80;;;14.80;88.20;;;;;;5056576;23;20045;-86
2021/04/11 08:08:51;;;;;;;2.35;0.77;;;15.20;85.90;;;;;;5035058;28;20033;-87
2021/04/11 08:11:55;;;;;;;3.58;0.82;;;15.40;84.90;;;;;;4988807;28;20349;-86
2021/04/11 08:14:23;;;;;;;2.40;0.88;;;15.80;83.80;;;;;;5020462;28;20033;-87
2021/04/11 08:16:53;;;;;;;2.20;0.95;;;15.90;83.10;;;;;;5030548;28;20409;-88
2021/04/11 08:19:41;;;;;;;3.08;1.13;;;15.90;83.10;;;;;;5027257;28;20678;-87
2021/04/11 08:22:35;;;;;;;3.33;1.00;;;16.00;83.40;;;;;;5030756;28;20038;-88
2021/04/11 08:25:08;;;;;;;2.15;0.75;;;15.80;81.10;;;;;;5034180;28;20029;-88
2021/04/11 08:27:55;;;;;;;2.80;0.70;;;15.80;81.00;;;;;;5020446;28;20026;-87
2021/04/11 08:30:39;;;;;;;2.20;0.75;;;15.70;81.70;;;;;;5049333;28;20021;-88
2021/04/11 08:33:29;;;;;;;2.83;0.70;;;16.00;82.60;;;;;;5020362;28;20458;-89
2021/04/11 08:36:21;;;;;;;2.58;0.70;;;16.20;81.10;;;;;;5058511;28;20036;-88
2021/04/11 08:39:08;;;;;;;2.53;0.90;;;16.40;79.80;;;;;;5047370;28;20085;-88
2021/04/11 08:41:56;;;;;;;3.83;0.75;;;16.70;80.90;;;;;;5051421;28;20081;-89
2021/04/11 08:44:33;;;;;;;2.35;0.80;;;16.70;79.00;;;;;;5037512;28;20049;-88
2021/04/11 08:47:23;;;;;;;1.85;0.60;;;16.80;78.40;;;;;;5038249;28;20030;-88
2021/04/11 08:50:26;;;;;;;2.85;1.00;;;16.80;78.30;;;;;;5015621;28;20026;-88
2021/04/11 08:53:24;;;;;;;3.58;0.90;;;16.50;78.50;;;;;;5000622;28;20033;-88
2021/04/11 08:55:59;;;;;;;2.25;0.57;;;16.60;80.00;;;;;;5013637;28;20034;-88
2021/04/11 08:58:32;;;;;;;3.17;0.88;;;16.50;78.70;;;;;;5025418;28;20018;-88
2021/04/11 09:01:04;;;;;;;2.08;0.50;;;16.40;78.20;;;;;;5033716;28;20033;-88
2021/04/11 09:04:07;;;;;;;1.38;0.30;;;16.20;77.90;;;;;;5033426;28;20108;-88
2021/04/11 09:06:40;;;;;;;3.00;0.65;;;16.20;76.30;;;;;;5029467;28;20058;-88
2021/04/11 09:09:43;;;;;;;3.03;0.60;;;15.90;77.50;;;;;;5024539;28;20715;-88
2021/04/11 09:12:46;;;;;;;3.63;0.50;;;16.00;78.20;;;;;;5013198;28;20072;-88
2021/04/11 09:15:18;;;;;;;2.63;0.60;;;15.90;77.20;;;;;;5012835;28;20092;-88
2021/04/11 09:17:46;;;;;;;2.55;0.40;;;15.90;77.30;;;;;;5013231;28;20030;-88
2021/04/11 09:21:06;;;;;;;1.80;0.50;;;15.90;77.50;;;;;;5013293;28;20169;-89
2021/04/11 09:23:41;;;;;;;4.45;0.57;;;15.90;76.50;;;;;;4918555;29;20038;-88
2021/04/11 09:26:38;;;;;;;1.55;0.40;;;15.80;76.80;;;;;;5027841;28;20064;-88
2021/04/11 09:29:28;;;;;;;2.65;0.60;;;15.80;77.00;;;;;;5013092;28;20018;-88
2021/04/11 09:32:06;;;;;;;2.20;0.55;;;16.00;78.00;;;;;;5019193;28;20017;-89
2021/04/11 09:35:02;;;;;;;2.45;0.50;;;16.00;76.80;;;;;;5032408;28;20022;-89
2021/04/11 09:37:55;;;;;;;2.38;0.43;;;16.10;76.30;;;;;;5033546;28;20029;-88
2021/04/11 09:40:43;;;;;;;2.42;0.40;;;16.20;75.40;;;;;;5032344;28;20029;-88
2021/04/11 09:43:17;;;;;;;2.38;0.50;;;16.20;75.20;;;;;;5032270;28;20040;-90
2021/04/11 09:45:58;;;;;;;2.13;0.60;;;16.50;74.30;;;;;;5032281;28;20087;-88
2021/04/11 09:49:02;;;;;;;2.92;0.60;;;16.70;73.90;;;;;;5029866;28;20116;-88
2021/04/11 09:51:59;;;;;;;3.17;0.60;;;16.80;73.90;;;;;;4995356;28;20029;-88
2021/04/11 09:54:44;;;;;;;1.83;0.45;;;16.90;73.80;;;;;;5031873;28;20378;-90
2021/04/11 09:57:22;;;;;;;2.97;0.90;;;16.90;74.10;;;;;;5032299;28;20045;-89
2021/04/11 09:59:52;;;;;;;2.58;0.57;;;16.60;73.10;;;;;;5032368;28;20370;-88
2021/04/11 10:02:44;;;;;;;1.45;0.63;;;16.70;73.20;;;;;;5020677;28;20022;-89
2021/04/11 10:05:20;;;;;;;6.68;0.88;;;16.60;74.10;;;;;;5012272;28;20468;-89
2021/04/11 10:08:27;;;;;;;5.63;0.60;;;16.60;72.50;;;;;;5012446;28;20422;-88
2021/04/11 10:11:22;;;;;;;2.13;0.60;;;16.50;72.40;;;;;;5011067;28;20121;-88
2021/04/11 10:14:26;;;;;;;1.67;0.47;;;16.70;72.60;;;;;;5012170;28;20041;-88
2021/04/11 10:17:03;;;;;;;3.50;0.77;;;16.90;70.80;;;;;;5011931;28;20505;-88
2021/04/11 10:19:36;;;;;;;4.95;0.70;;;17.00;71.60;;;;;;5012019;28;20034;-88
2021/04/11 10:22:17;;;;;;;3.30;0.52;;;17.10;70.50;;;;;;5011808;28;20485;-88
2021/04/11 10:25:02;;;;;;;2.00;0.65;;;17.20;69.30;;;;;;5011596;28;20072;-88
2021/04/11 10:27:31;;;;;;;3.35;1.08;;;17.70;69.40;;;;;;5011576;28;20036;-88
2021/04/11 10:29:59;;;;;;;1.63;0.50;;;18.10;69.60;;;;;;5011952;28;20022;-89
2021/04/11 10:32:36;;;;;;;4.13;0.70;;;18.30;67.90;;;;;;5013027;28;20077;-89
2021/04/11 10:35:19;;;;;;;2.70;0.60;;;18.40;66.70;;;;;;5011797;28;20133;-89
2021/04/11 10:37:51;;;;;;;2.30;0.57;;;18.70;67.40;;;;;;5026078;28;20124;-89
2021/04/11 10:40:41;;;;;;;2.63;0.60;;;18.80;65.90;;;;;;5047773;28;20025;-89
2021/04/11 10:43:46;;;;;;;1.85;0.55;;;18.80;65.50;;;;;;5031570;28;20029;-89
2021/04/11 10:46:29;;;;;;;1.02;0.40;;;19.10;62.80;;;;;;4936353;29;20035;-89
2021/04/11 10:49:17;;;;;;;1.45;0.40;;;19.10;63.20;;;;;;4952861;28;20085;-89
2021/04/11 10:51:48;;;;;;;2.95;0.73;;;18.60;62.90;;;;;;5009861;28;20029;-89
2021/04/11 10:54:41;;;;;;;1.95;0.68;;;18.40;64.70;;;;;;5030876;28;20576;-88
2021/04/11 10:57:29;;;;;;;3.67;0.60;;;18.20;64.90;;;;;;5031225;28;20026;-88
2021/04/11 11:00:11;;;;;;;2.92;0.50;;;18.00;64.80;;;;;;5030855;28;20029;-88
2021/04/11 11:02:58;;;;;;;1.65;0.50;;;18.00;65.20;;;;;;5030502;28;20040;-88
2021/04/11 11:05:46;;;;;;;1.60;0.40;;;18.00;65.50;;;;;;5030281;28;20056;-89
2021/04/11 11:08:20;;;;;;;2.20;0.70;;;17.90;65.70;;;;;;5030448;28;20493;-88
2021/04/11 11:10:52;;;;;;;2.40;0.43;;;17.80;65.70;;;;;;5030642;28;20025;-88
2021/04/11 11:13:45;;;;;;;2.85;0.68;;;17.70;65.70;;;;;;5029528;28;20288;-88
2021/04/11 11:16:30;;;;;;;1.95;1.15;;;17.70;65.90;;;;;;5030539;28;20030;-89
2021/04/11 11:19:25;;;;;;;2.65;0.43;;;17.50;66.00;;;;;;5030577;28;20055;-87
2021/04/11 11:22:14;;;;;;;2.10;0.70;;;17.80;65.60;;;;;;5030626;28;20037;-89
2021/04/11 11:25:01;;;;;;;2.25;0.65;;;17.80;64.70;;;;;;5031615;28;20390;-89
2021/04/11 11:28:00;;;;;;;2.08;0.60;;;17.70;64.30;;;;;;5031292;28;20112;-89
2021/04/11 11:30:47;;;;;;;2.92;0.57;;;17.70;65.10;;;;;;5031465;28;20029;-88
2021/04/11 11:33:42;;;;;;;3.35;0.52;;;17.60;65.40;;;;;;5031365;28;20025;-88
2021/04/11 11:36:32;;;;;;;3.47;0.68;;;17.70;65.50;;;;;;5019742;28;20029;-89
2021/04/11 11:39:15;;;;;;;3.13;0.73;;;17.90;65.50;;;;;;5034298;28;20022;-89
2021/04/11 11:41:56;;;;;;;3.78;0.90;;;18.00;64.50;;;;;;5020691;28;20029;-88
2021/04/11 11:44:23;;;;;;;2.53;0.70;;;18.10;64.40;;;;;;5015114;28;20029;-89
2021/04/11 11:46:53;;;;;;;2.95;0.77;;;18.30;64.30;;;;;;5014432;28;20045;-90
2021/04/11 11:49:42;;;;;;;1.98;0.63;;;18.20;63.60;;;;;;5033798;28;20029;-88
2021/04/11 11:52:44;;;;;;;1.90;0.70;;;18.30;64.70;;;;;;5034647;28;20030;-89
2021/04/11 11:55:23;;;;;;;3.03;0.98;;;18.50;63.20;;;;;;5034259;28;20025;-89
2021/04/11 11:58:11;;;;;;;2.28;0.70;;;18.80;62.70;;;;;;5034315;28;20485;-89
2021/04/11 12:00:44;;;;;;;2.17;0.68;;;19.50;62.60;;;;;;5034388;28;20029;-89
2021/04/11 12:03:23;;;;;;;2.20;0.57;;;20.00;61.00;;;;;;5034302;28;20034;-90
2021/04/11 12:06:07;;;;;;;2.63;0.70;;;20.40;59.20;;;;;;5033827;28;20037;-89
2021/04/11 12:08:58;;;;;;;4.07;0.75;;;20.70;58.80;;;;;;5033736;28;20029;-89
2021/04/11 12:11:58;;;;;;;1.75;0.60;;;20.70;58.90;;;;;;5034689;28;20148;-89
2021/04/11 12:14:29;;;;;;;3.15;0.90;;;20.60;57.70;;;;;;5034204;28;20030;-89
2021/04/11 12:17:17;;;;;;;2.47;0.80;;;20.30;59.00;;;;;;5034689;28;20025;-90
2021/04/11 12:20:16;;;;;;;3.40;0.70;;;20.40;57.80;;;;;;5034317;28;20028;-91
2021/04/11 12:22:47;;;;;;;2.22;0.63;;;20.40;58.40;;;;;;5033422;28;20512;-90
2021/04/11 12:25:23;;;;;;;2.03;0.85;;;20.30;58.10;;;;;;5036071;28;20026;-90
2021/04/11 12:27:52;;;;;;;3.60;0.50;;;20.60;56.80;;;;;;5038305;28;20033;-90
2021/04/11 12:30:32;;;;;;;2.78;0.70;;;21.00;55.70;;;;;;5052686;28;20517;-89
2021/04/11 12:33:38;;;;;;;3.13;0.95;;;21.60;55.40;;;;;;5020392;28;20026;-91
2021/04/11 12:36:16;;;;;;;1.95;0.50;;;21.40;54.90;;;;;;5018038;28;20022;-91
2021/04/11 12:38:52;;;;;;;2.55;0.40;;;21.00;54.00;;;;;;5016129;28;20411;-91
2021/04/11 12:41:37;;;;;;;1.92;0.60;;;21.10;54.40;;;;;;5016500;28;20088;-91
2021/04/11 12:44:32;;;;;;;5.93;2.95;;;21.30;54.40;;;;;;5016976;28;20053;-91
2021/04/11 12:47:28;;;;;;;6.13;1.80;;;21.10;55.90;;;;;;5016687;28;20105;-91
2021/04/11 12:50:12;;;;;;;2.58;0.60;;;20.90;55.90;;;;;;5016734;28;20026;-91
2021/04/11 12:53:10;;;;;;;2.35;0.80;;;20.70;55.20;;;;;;5017512;28;20022;-91
2021/04/11 12:55:52;;;;;;;2.45;0.55;;;20.60;56.20;;;;;;5042329;28;20098;-91
2021/04/11 12:58:21;;;;;;;2.28;0.50;;;20.30;55.60;;;;;;5032180;28;20061;-94
2021/04/11 13:01:07;;;;;;;2.75;0.60;;;20.30;55.90;;;;;;5016140;28;20156;-92
2021/04/11 13:03:41;;;;;;;2.28;0.75;;;20.10;57.00;;;;;;5032182;28;20471;-92
2021/04/11 13:06:09;;;;;;;1.88;0.45;;;20.00;57.40;;;;;;5016200;28;20359;-91
2021/04/11 13:08:58;;;;;;;2.45;0.60;;;19.90;56.00;;;;;;5018504;28;20113;-92
2021/04/11 13:11:39;;;;;;;1.48;0.40;;;20.30;56.80;;;;;;5035998;28;20065;-92
2021/04/11 13:14:32;;;;;;;3.67;0.57;;;20.50;56.30;;;;;;5036567;28;20028;-92
2021/04/11 13:17:07;;;;;;;2.75;0.60;;;20.50;54.90;;;;;;5017064;28;20069;-92
2021/04/11 13:20:01;;;;;;;1.95;0.60;;;20.50;55.60;;;;;;5036594;28;20026;-93
2021/04/11 13:42:41;;;;;;;4.30;0.80;;;19.50;61.20;;;;;;5013228;28;20040;-92
2021/04/11 13:45:15;;;;;;;1.60;0.52;;;19.40;61.50;;;;;;5034701;28;20104;-92
2021/04/11 13:48:19;;;;;;;3.22;0.85;;;19.30;62.40;;;;;;5033975;28;20025;-93
2021/04/11 13:51:04;;;;;;;2.35;1.00;;;19.20;62.40;;;;;;5033896;28;20367;-91
2021/04/11 13:54:02;;;;;;;3.05;0.85;;;19.20;62.60;;;;;;5034288;28;20117;-89
2021/04/11 13:56:53;;;;;;;2.35;0.65;;;19.20;63.10;;;;;;5023279;28;20029;-89
2021/04/11 13:59:28;;;;;;;2.38;0.70;;;19.10;63.20;;;;;;5015969;28;20040;-90
2021/04/11 14:09:24;;;;;;;3.72;0.70;;;18.70;65.50;;;;;;4962705;28;20070;-92
2021/04/11 14:12:37;;;;;;;3.33;0.52;;;18.80;65.40;;;;;;5012040;28;20509;-90
2021/04/11 14:22:11;;;;;;;2.95;0.50;;;18.30;66.70;;;;;;5024327;28;20018;-91
2021/04/11 14:25:16;;;;;;;1.48;0.50;;;18.30;66.70;;;;;;5034008;28;20021;-90